sensor_id;sensor_type;location;lat;lon;timestamp;P1;durP1;ratioP1;P2;durP2;ratioP2
41101;SDS011;26845;50.190;19.178;2022-12-17T00:02:39;99.15;;;39.50;;
41101;SDS011;26845;50.190;19.178;2022-12-17T00:05:25;92.47;;;37.08;;
41101;SDS011;26845;50.190;19.178;2022-12-17T00:08:11;90.42;;;37.88;;
41101;SDS011;26845;50.190;19.178;2022-12-17T00:10:56;92.33;;;36.95;;
41101;SDS011;26845;50.190;19.178;2022-12-17T00:13:42;93.82;;;37.90;;
41101;SDS011;26845;50.190;19.178;2022-12-17T00:16:27;95.57;;;37.58;;
41101;SDS011;26845;50.190;19.178;2022-12-17T00:19:13;89.52;;;37.55;;
41101;SDS011;26845;50.190;19.178;2022-12-17T00:21:58;86.02;;;37.40;;
41101;SDS011;26845;50.190;19.178;2022-12-17T00:24:43;90.40;;;37.23;;
41101;SDS011;26845;50.190;19.178;2022-12-17T00:27:30;98.15;;;38.08;;
41101;SDS011;26845;50.190;19.178;2022-12-17T00:30:15;107.80;;;43.17;;
41101;SDS011;26845;50.190;19.178;2022-12-17T00:33:01;96.97;;;40.20;;
41101;SDS011;26845;50.190;19.178;2022-12-17T00:35:54;99.07;;;40.52;;
41101;SDS011;26845;50.190;19.178;2022-12-17T00:38:38;103.85;;;40.92;;
41101;SDS011;26845;50.190;19.178;2022-12-17T00:41:24;100.25;;;40.92;;
41101;SDS011;26845;50.190;19.178;2022-12-17T00:44:09;93.05;;;39.88;;
41101;SDS011;26845;50.190;19.178;2022-12-17T00:46:55;101.65;;;39.50;;
41101;SDS011;26845;50.190;19.178;2022-12-17T00:49:40;91.35;;;37.38;;
41101;SDS011;26845;50.190;19.178;2022-12-17T00:52:26;90.90;;;39.70;;
41101;SDS011;26845;50.190;19.178;2022-12-17T00:55:11;94.40;;;40.45;;
41101;SDS011;26845;50.190;19.178;2022-12-17T00:57:56;103.62;;;40.38;;
41101;SDS011;26845;50.190;19.178;2022-12-17T01:00:42;90.95;;;38.80;;
41101;SDS011;26845;50.190;19.178;2022-12-17T01:03:27;90.30;;;39.33;;
41101;SDS011;26845;50.190;19.178;2022-12-17T01:06:13;92.75;;;37.05;;
41101;SDS011;26845;50.190;19.178;2022-12-17T01:08:44;80.32;;;34.35;;
41101;SDS011;26845;50.190;19.178;2022-12-17T01:11:29;89.40;;;37.03;;
41101;SDS011;26845;50.190;19.178;2022-12-17T01:14:15;87.97;;;37.70;;
41101;SDS011;26845;50.190;19.178;2022-12-17T01:17:00;91.63;;;38.02;;
41101;SDS011;26845;50.190;19.178;2022-12-17T01:19:46;96.70;;;39.42;;
41101;SDS011;26845;50.190;19.178;2022-12-17T01:22:31;91.00;;;38.42;;
41101;SDS011;26845;50.190;19.178;2022-12-17T01:25:17;78.87;;;33.42;;
41101;SDS011;26845;50.190;19.178;2022-12-17T01:28:02;80.67;;;35.25;;
41101;SDS011;26845;50.190;19.178;2022-12-17T01:30:47;77.47;;;33.83;;
41101;SDS011;26845;50.190;19.178;2022-12-17T01:33:33;84.40;;;35.40;;
41101;SDS011;26845;50.190;19.178;2022-12-17T01:36:18;78.00;;;33.67;;
41101;SDS011;26845;50.190;19.178;2022-12-17T01:39:04;83.62;;;35.50;;
41101;SDS011;26845;50.190;19.178;2022-12-17T01:41:49;83.33;;;36.10;;
41101;SDS011;26845;50.190;19.178;2022-12-17T01:50:47;73.97;;;32.28;;
41101;SDS011;26845;50.190;19.178;2022-12-17T01:53:37;77.47;;;34.03;;
41101;SDS011;26845;50.190;19.178;2022-12-17T01:56:39;81.12;;;33.40;;
41101;SDS011;26845;50.190;19.178;2022-12-17T01:59:34;81.40;;;32.70;;
41101;SDS011;26845;50.190;19.178;2022-12-17T02:02:38;76.47;;;32.95;;
41101;SDS011;26845;50.190;19.178;2022-12-17T02:05:26;80.72;;;35.33;;
41101;SDS011;26845;50.190;19.178;2022-12-17T02:11:57;77.05;;;33.35;;
41101;SDS011;26845;50.190;19.178;2022-12-17T02:17:48;65.83;;;28.98;;
41101;SDS011;26845;50.190;19.178;2022-12-17T02:20:44;65.65;;;30.45;;
41101;SDS011;26845;50.190;19.178;2022-12-17T02:23:43;67.67;;;30.43;;
41101;SDS011;26845;50.190;19.178;2022-12-17T02:26:58;67.92;;;30.12;;
41101;SDS011;26845;50.190;19.178;2022-12-17T02:29:51;66.30;;;28.85;;
41101;SDS011;26845;50.190;19.178;2022-12-17T02:32:43;66.30;;;28.20;;
41101;SDS011;26845;50.190;19.178;2022-12-17T02:35:35;70.67;;;29.23;;
41101;SDS011;26845;50.190;19.178;2022-12-17T02:38:45;69.32;;;29.82;;
41101;SDS011;26845;50.190;19.178;2022-12-17T02:41:36;72.17;;;29.75;;
41101;SDS011;26845;50.190;19.178;2022-12-17T02:47:17;59.40;;;26.20;;
41101;SDS011;26845;50.190;19.178;2022-12-17T02:50:05;64.17;;;28.83;;
41101;SDS011;26845;50.190;19.178;2022-12-17T02:52:52;64.67;;;29.42;;
41101;SDS011;26845;50.190;19.178;2022-12-17T02:55:38;61.68;;;26.15;;
41101;SDS011;26845;50.190;19.178;2022-12-17T02:58:23;62.17;;;27.73;;
41101;SDS011;26845;50.190;19.178;2022-12-17T03:01:09;65.00;;;28.47;;
41101;SDS011;26845;50.190;19.178;2022-12-17T03:03:54;63.10;;;27.40;;
41101;SDS011;26845;50.190;19.178;2022-12-17T03:06:40;67.30;;;31.17;;
41101;SDS011;26845;50.190;19.178;2022-12-17T03:09:26;68.37;;;31.33;;
41101;SDS011;26845;50.190;19.178;2022-12-17T03:12:11;67.47;;;29.77;;
41101;SDS011;26845;50.190;19.178;2022-12-17T03:14:57;68.47;;;29.55;;
41101;SDS011;26845;50.190;19.178;2022-12-17T03:17:43;65.62;;;29.23;;
41101;SDS011;26845;50.190;19.178;2022-12-17T03:20:28;70.45;;;30.80;;
41101;SDS011;26845;50.190;19.178;2022-12-17T03:23:14;66.10;;;29.37;;
41101;SDS011;26845;50.190;19.178;2022-12-17T03:26:00;69.00;;;30.80;;
41101;SDS011;26845;50.190;19.178;2022-12-17T03:28:48;59.18;;;27.93;;
41101;SDS011;26845;50.190;19.178;2022-12-17T03:31:33;59.60;;;28.50;;
41101;SDS011;26845;50.190;19.178;2022-12-17T03:34:19;62.80;;;29.57;;
41101;SDS011;26845;50.190;19.178;2022-12-17T03:37:04;65.10;;;28.00;;
41101;SDS011;26845;50.190;19.178;2022-12-17T03:39:49;66.65;;;30.12;;
41101;SDS011;26845;50.190;19.178;2022-12-17T03:42:35;73.02;;;32.25;;
41101;SDS011;26845;50.190;19.178;2022-12-17T03:45:20;70.97;;;32.20;;
41101;SDS011;26845;50.190;19.178;2022-12-17T03:48:10;94.80;;;38.53;;
41101;SDS011;26845;50.190;19.178;2022-12-17T03:50:58;73.25;;;33.95;;
41101;SDS011;26845;50.190;19.178;2022-12-17T03:53:44;83.52;;;35.03;;
41101;SDS011;26845;50.190;19.178;2022-12-17T03:56:30;78.35;;;35.28;;
41101;SDS011;26845;50.190;19.178;2022-12-17T03:59:15;77.08;;;34.98;;
41101;SDS011;26845;50.190;19.178;2022-12-17T04:02:01;85.53;;;37.28;;
41101;SDS011;26845;50.190;19.178;2022-12-17T04:04:46;81.92;;;35.65;;
41101;SDS011;26845;50.190;19.178;2022-12-17T04:07:32;82.95;;;35.85;;
41101;SDS011;26845;50.190;19.178;2022-12-17T04:10:17;81.85;;;36.45;;
41101;SDS011;26845;50.190;19.178;2022-12-17T04:13:03;93.80;;;41.00;;
41101;SDS011;26845;50.190;19.178;2022-12-17T04:15:41;86.53;;;37.35;;
41101;SDS011;26845;50.190;19.178;2022-12-17T04:18:26;80.72;;;34.78;;
41101;SDS011;26845;50.190;19.178;2022-12-17T04:21:11;79.50;;;34.85;;
41101;SDS011;26845;50.190;19.178;2022-12-17T04:23:56;76.72;;;35.38;;
41101;SDS011;26845;50.190;19.178;2022-12-17T04:26:41;77.37;;;33.83;;
41101;SDS011;26845;50.190;19.178;2022-12-17T04:29:27;77.92;;;33.90;;
41101;SDS011;26845;50.190;19.178;2022-12-17T04:32:12;73.80;;;33.28;;
41101;SDS011;26845;50.190;19.178;2022-12-17T04:34:57;69.70;;;32.15;;
41101;SDS011;26845;50.190;19.178;2022-12-17T04:37:42;78.45;;;34.20;;
41101;SDS011;26845;50.190;19.178;2022-12-17T04:40:28;74.03;;;34.27;;
41101;SDS011;26845;50.190;19.178;2022-12-17T04:43:13;78.02;;;32.67;;
41101;SDS011;26845;50.190;19.178;2022-12-17T04:45:58;69.55;;;31.68;;
41101;SDS011;26845;50.190;19.178;2022-12-17T04:48:44;73.52;;;34.33;;
41101;SDS011;26845;50.190;19.178;2022-12-17T04:51:29;82.85;;;35.98;;
41101;SDS011;26845;50.190;19.178;2022-12-17T04:54:15;79.30;;;34.95;;
41101;SDS011;26845;50.190;19.178;2022-12-17T04:57:02;82.75;;;35.40;;
41101;SDS011;26845;50.190;19.178;2022-12-17T04:59:47;91.63;;;38.05;;
41101;SDS011;26845;50.190;19.178;2022-12-17T05:02:34;83.87;;;34.53;;
41101;SDS011;26845;50.190;19.178;2022-12-17T05:05:19;77.45;;;33.25;;
41101;SDS011;26845;50.190;19.178;2022-12-17T05:08:04;77.35;;;35.20;;
41101;SDS011;26845;50.190;19.178;2022-12-17T05:10:49;77.22;;;34.85;;
41101;SDS011;26845;50.190;19.178;2022-12-17T05:13:34;88.67;;;36.33;;
41101;SDS011;26845;50.190;19.178;2022-12-17T05:16:20;93.72;;;39.15;;
41101;SDS011;26845;50.190;19.178;2022-12-17T05:19:05;84.28;;;38.83;;
41101;SDS011;26845;50.190;19.178;2022-12-17T05:21:50;91.87;;;39.98;;
41101;SDS011;26845;50.190;19.178;2022-12-17T05:24:35;84.80;;;37.90;;
41101;SDS011;26845;50.190;19.178;2022-12-17T05:27:20;79.80;;;36.63;;
41101;SDS011;26845;50.190;19.178;2022-12-17T05:30:06;85.85;;;36.03;;
41101;SDS011;26845;50.190;19.178;2022-12-17T05:33:02;90.10;;;37.93;;
41101;SDS011;26845;50.190;19.178;2022-12-17T05:35:48;86.50;;;39.42;;
41101;SDS011;26845;50.190;19.178;2022-12-17T05:38:35;83.07;;;37.45;;
41101;SDS011;26845;50.190;19.178;2022-12-17T05:41:21;81.75;;;34.63;;
41101;SDS011;26845;50.190;19.178;2022-12-17T05:44:07;80.22;;;37.30;;
41101;SDS011;26845;50.190;19.178;2022-12-17T05:46:52;83.27;;;36.33;;
41101;SDS011;26845;50.190;19.178;2022-12-17T05:49:37;87.90;;;35.28;;
41101;SDS011;26845;50.190;19.178;2022-12-17T05:52:23;87.70;;;35.92;;
41101;SDS011;26845;50.190;19.178;2022-12-17T05:55:08;90.53;;;36.35;;
41101;SDS011;26845;50.190;19.178;2022-12-17T05:58:00;76.33;;;35.60;;
41101;SDS011;26845;50.190;19.178;2022-12-17T06:00:59;85.90;;;37.13;;
41101;SDS011;26845;50.190;19.178;2022-12-17T06:03:43;82.80;;;34.85;;
41101;SDS011;26845;50.190;19.178;2022-12-17T06:06:29;73.85;;;33.30;;
41101;SDS011;26845;50.190;19.178;2022-12-17T06:09:14;72.40;;;31.70;;
41101;SDS011;26845;50.190;19.178;2022-12-17T06:11:59;77.27;;;35.17;;
41101;SDS011;26845;50.190;19.178;2022-12-17T06:14:45;78.70;;;33.40;;
41101;SDS011;26845;50.190;19.178;2022-12-17T06:17:31;81.00;;;33.50;;
41101;SDS011;26845;50.190;19.178;2022-12-17T06:20:16;86.57;;;36.42;;
41101;SDS011;26845;50.190;19.178;2022-12-17T06:23:03;84.77;;;36.00;;
41101;SDS011;26845;50.190;19.178;2022-12-17T06:25:53;78.12;;;34.10;;
41101;SDS011;26845;50.190;19.178;2022-12-17T06:28:41;83.95;;;34.65;;
41101;SDS011;26845;50.190;19.178;2022-12-17T06:31:28;84.67;;;36.53;;
41101;SDS011;26845;50.190;19.178;2022-12-17T06:34:13;86.78;;;36.70;;
41101;SDS011;26845;50.190;19.178;2022-12-17T06:36:58;88.05;;;36.42;;
41101;SDS011;26845;50.190;19.178;2022-12-17T06:39:44;82.75;;;35.68;;
41101;SDS011;26845;50.190;19.178;2022-12-17T06:42:29;84.83;;;36.75;;
41101;SDS011;26845;50.190;19.178;2022-12-17T06:45:14;87.12;;;36.38;;
41101;SDS011;26845;50.190;19.178;2022-12-17T06:48:03;79.15;;;34.50;;
41101;SDS011;26845;50.190;19.178;2022-12-17T06:50:52;87.45;;;37.83;;
41101;SDS011;26845;50.190;19.178;2022-12-17T06:53:40;82.50;;;37.38;;
41101;SDS011;26845;50.190;19.178;2022-12-17T06:56:26;93.37;;;38.00;;
41101;SDS011;26845;50.190;19.178;2022-12-17T06:59:12;82.50;;;38.13;;
41101;SDS011;26845;50.190;19.178;2022-12-17T07:01:57;92.75;;;40.20;;
41101;SDS011;26845;50.190;19.178;2022-12-17T07:04:45;87.17;;;38.33;;
41101;SDS011;26845;50.190;19.178;2022-12-17T07:07:30;88.52;;;38.38;;
41101;SDS011;26845;50.190;19.178;2022-12-17T07:10:16;96.57;;;41.83;;
41101;SDS011;26845;50.190;19.178;2022-12-17T07:13:07;92.22;;;39.90;;
41101;SDS011;26845;50.190;19.178;2022-12-17T07:15:53;104.10;;;42.73;;
41101;SDS011;26845;50.190;19.178;2022-12-17T07:18:39;97.47;;;43.83;;
41101;SDS011;26845;50.190;19.178;2022-12-17T07:21:24;100.65;;;44.35;;
41101;SDS011;26845;50.190;19.178;2022-12-17T07:24:10;107.87;;;44.90;;
41101;SDS011;26845;50.190;19.178;2022-12-17T07:27:05;95.65;;;44.53;;
41101;SDS011;26845;50.190;19.178;2022-12-17T07:29:47;107.78;;;46.18;;
41101;SDS011;26845;50.190;19.178;2022-12-17T07:32:32;118.80;;;52.53;;
41101;SDS011;26845;50.190;19.178;2022-12-17T07:35:22;114.08;;;50.43;;
41101;SDS011;26845;50.190;19.178;2022-12-17T07:38:09;129.35;;;59.00;;
41101;SDS011;26845;50.190;19.178;2022-12-17T07:43:42;115.57;;;44.90;;
41101;SDS011;26845;50.190;19.178;2022-12-17T07:46:31;119.17;;;47.17;;
41101;SDS011;26845;50.190;19.178;2022-12-17T07:49:17;114.12;;;48.98;;
41101;SDS011;26845;50.190;19.178;2022-12-17T07:52:03;106.72;;;42.55;;
41101;SDS011;26845;50.190;19.178;2022-12-17T07:54:50;96.75;;;36.93;;
41101;SDS011;26845;50.190;19.178;2022-12-17T07:57:42;108.03;;;45.15;;
41101;SDS011;26845;50.190;19.178;2022-12-17T08:00:25;101.62;;;43.92;;
41101;SDS011;26845;50.190;19.178;2022-12-17T08:03:10;97.33;;;43.08;;
41101;SDS011;26845;50.190;19.178;2022-12-17T08:05:56;98.27;;;40.63;;
41101;SDS011;26845;50.190;19.178;2022-12-17T08:08:42;89.65;;;38.78;;
41101;SDS011;26845;50.190;19.178;2022-12-17T08:11:28;112.08;;;50.25;;
41101;SDS011;26845;50.190;19.178;2022-12-17T08:14:13;97.85;;;41.60;;
41101;SDS011;26845;50.190;19.178;2022-12-17T08:16:58;103.12;;;45.60;;
41101;SDS011;26845;50.190;19.178;2022-12-17T08:19:48;102.32;;;45.52;;
41101;SDS011;26845;50.190;19.178;2022-12-17T08:22:33;107.75;;;52.62;;
41101;SDS011;26845;50.190;19.178;2022-12-17T08:28:08;116.33;;;55.75;;
41101;SDS011;26845;50.190;19.178;2022-12-17T08:30:53;115.88;;;52.98;;
41101;SDS011;26845;50.190;19.178;2022-12-17T08:33:39;107.07;;;45.55;;
41101;SDS011;26845;50.190;19.178;2022-12-17T08:36:24;95.20;;;43.15;;
41101;SDS011;26845;50.190;19.178;2022-12-17T08:39:13;100.63;;;45.23;;
41101;SDS011;26845;50.190;19.178;2022-12-17T08:42:01;100.45;;;44.03;;
41101;SDS011;26845;50.190;19.178;2022-12-17T08:44:46;100.72;;;43.35;;
41101;SDS011;26845;50.190;19.178;2022-12-17T08:47:32;102.87;;;47.85;;
41101;SDS011;26845;50.190;19.178;2022-12-17T08:50:16;101.72;;;45.15;;
41101;SDS011;26845;50.190;19.178;2022-12-17T08:53:02;103.07;;;49.00;;
41101;SDS011;26845;50.190;19.178;2022-12-17T08:55:48;97.53;;;46.70;;
41101;SDS011;26845;50.190;19.178;2022-12-17T08:58:43;102.97;;;47.80;;
41101;SDS011;26845;50.190;19.178;2022-12-17T09:01:36;107.70;;;49.27;;
41101;SDS011;26845;50.190;19.178;2022-12-17T09:04:30;105.47;;;48.33;;
41101;SDS011;26845;50.190;19.178;2022-12-17T09:07:16;115.30;;;52.27;;
41101;SDS011;26845;50.190;19.178;2022-12-17T09:10:02;114.70;;;50.63;;
41101;SDS011;26845;50.190;19.178;2022-12-17T09:12:46;106.47;;;47.15;;
41101;SDS011;26845;50.190;19.178;2022-12-17T09:15:32;110.37;;;49.53;;
41101;SDS011;26845;50.190;19.178;2022-12-17T09:18:21;99.72;;;46.02;;
41101;SDS011;26845;50.190;19.178;2022-12-17T09:21:06;94.60;;;43.33;;
41101;SDS011;26845;50.190;19.178;2022-12-17T09:23:52;97.00;;;44.23;;
41101;SDS011;26845;50.190;19.178;2022-12-17T09:26:37;105.78;;;46.10;;
41101;SDS011;26845;50.190;19.178;2022-12-17T09:29:26;94.13;;;44.90;;
41101;SDS011;26845;50.190;19.178;2022-12-17T09:32:11;109.32;;;48.08;;
41101;SDS011;26845;50.190;19.178;2022-12-17T09:34:56;105.32;;;49.23;;
41101;SDS011;26845;50.190;19.178;2022-12-17T09:37:41;109.63;;;50.80;;
41101;SDS011;26845;50.190;19.178;2022-12-17T09:40:26;112.47;;;52.17;;
41101;SDS011;26845;50.190;19.178;2022-12-17T09:43:30;108.90;;;47.83;;
41101;SDS011;26845;50.190;19.178;2022-12-17T09:46:39;102.07;;;46.30;;
41101;SDS011;26845;50.190;19.178;2022-12-17T09:49:40;99.20;;;46.90;;
41101;SDS011;26845;50.190;19.178;2022-12-17T09:52:28;117.22;;;53.02;;
41101;SDS011;26845;50.190;19.178;2022-12-17T09:55:24;104.43;;;48.25;;
41101;SDS011;26845;50.190;19.178;2022-12-17T09:58:22;103.83;;;46.30;;
41101;SDS011;26845;50.190;19.178;2022-12-17T10:01:18;100.47;;;44.83;;
41101;SDS011;26845;50.190;19.178;2022-12-17T10:04:03;106.15;;;47.38;;
41101;SDS011;26845;50.190;19.178;2022-12-17T10:06:59;101.40;;;45.67;;
41101;SDS011;26845;50.190;19.178;2022-12-17T10:09:48;109.10;;;49.40;;
41101;SDS011;26845;50.190;19.178;2022-12-17T10:12:35;101.30;;;48.37;;
41101;SDS011;26845;50.190;19.178;2022-12-17T10:15:21;116.42;;;50.65;;
41101;SDS011;26845;50.190;19.178;2022-12-17T10:18:08;110.97;;;49.63;;
41101;SDS011;26845;50.190;19.178;2022-12-17T10:21:00;103.83;;;46.50;;
41101;SDS011;26845;50.190;19.178;2022-12-17T10:23:50;127.47;;;55.28;;
41101;SDS011;26845;50.190;19.178;2022-12-17T10:26:33;111.22;;;49.77;;
41101;SDS011;26845;50.190;19.178;2022-12-17T10:29:21;106.70;;;46.77;;
41101;SDS011;26845;50.190;19.178;2022-12-17T10:41:23;123.72;;;51.77;;
41101;SDS011;26845;50.190;19.178;2022-12-17T10:44:32;123.92;;;50.43;;
41101;SDS011;26845;50.190;19.178;2022-12-17T10:47:20;113.00;;;48.05;;
41101;SDS011;26845;50.190;19.178;2022-12-17T10:50:14;121.62;;;49.45;;
41101;SDS011;26845;50.190;19.178;2022-12-17T10:53:02;104.03;;;46.40;;
41101;SDS011;26845;50.190;19.178;2022-12-17T10:55:50;101.85;;;46.53;;
41101;SDS011;26845;50.190;19.178;2022-12-17T10:58:42;105.43;;;43.95;;
41101;SDS011;26845;50.190;19.178;2022-12-17T11:01:30;103.15;;;46.58;;
41101;SDS011;26845;50.190;19.178;2022-12-17T11:07:23;114.28;;;47.53;;
41101;SDS011;26845;50.190;19.178;2022-12-17T11:10:26;100.22;;;43.68;;
41101;SDS011;26845;50.190;19.178;2022-12-17T11:16:41;99.52;;;43.95;;
41101;SDS011;26845;50.190;19.178;2022-12-17T11:19:35;99.05;;;43.63;;
41101;SDS011;26845;50.190;19.178;2022-12-17T11:25:59;107.17;;;48.52;;
41101;SDS011;26845;50.190;19.178;2022-12-17T11:28:54;111.25;;;46.90;;
41101;SDS011;26845;50.190;19.178;2022-12-17T11:38:16;134.18;;;60.43;;
41101;SDS011;26845;50.190;19.178;2022-12-17T11:53:49;114.90;;;47.08;;
41101;SDS011;26845;50.190;19.178;2022-12-17T11:59:39;99.22;;;41.40;;
41101;SDS011;26845;50.190;19.178;2022-12-17T12:05:30;103.95;;;45.28;;
41101;SDS011;26845;50.190;19.178;2022-12-17T12:08:25;101.65;;;43.75;;
41101;SDS011;26845;50.190;19.178;2022-12-17T12:14:15;106.12;;;43.80;;
41101;SDS011;26845;50.190;19.178;2022-12-17T12:33:32;104.38;;;42.90;;
41101;SDS011;26845;50.190;19.178;2022-12-17T12:36:11;107.83;;;44.45;;
41101;SDS011;26845;50.190;19.178;2022-12-17T12:39:00;103.78;;;43.02;;
41101;SDS011;26845;50.190;19.178;2022-12-17T12:54:21;111.57;;;44.38;;
41101;SDS011;26845;50.190;19.178;2022-12-17T12:57:26;105.85;;;42.43;;
41101;SDS011;26845;50.190;19.178;2022-12-17T13:06:40;118.22;;;50.15;;
41101;SDS011;26845;50.190;19.178;2022-12-17T13:09:29;113.25;;;46.25;;
41101;SDS011;26845;50.190;19.178;2022-12-17T13:12:07;94.03;;;40.33;;
41101;SDS011;26845;50.190;19.178;2022-12-17T13:17:32;105.05;;;42.25;;
41101;SDS011;26845;50.190;19.178;2022-12-17T13:25:42;106.85;;;42.00;;
41101;SDS011;26845;50.190;19.178;2022-12-17T13:28:26;104.35;;;42.45;;
41101;SDS011;26845;50.190;19.178;2022-12-17T13:30:59;96.95;;;40.73;;
41101;SDS011;26845;50.190;19.178;2022-12-17T13:36:31;112.57;;;43.28;;
41101;SDS011;26845;50.190;19.178;2022-12-17T13:41:57;103.78;;;42.78;;
41101;SDS011;26845;50.190;19.178;2022-12-17T13:44:29;108.32;;;43.38;;
41101;SDS011;26845;50.190;19.178;2022-12-17T13:46:56;108.90;;;43.02;;
41101;SDS011;26845;50.190;19.178;2022-12-17T13:49:29;108.97;;;44.00;;
41101;SDS011;26845;50.190;19.178;2022-12-17T13:52:05;116.40;;;47.23;;
41101;SDS011;26845;50.190;19.178;2022-12-17T13:54:43;114.77;;;44.70;;
41101;SDS011;26845;50.190;19.178;2022-12-17T13:59:49;108.40;;;45.88;;
41101;SDS011;26845;50.190;19.178;2022-12-17T14:04:58;132.65;;;53.87;;
41101;SDS011;26845;50.190;19.178;2022-12-17T14:07:31;142.68;;;55.35;;
41101;SDS011;26845;50.190;19.178;2022-12-17T14:09:59;154.95;;;59.60;;
41101;SDS011;26845;50.190;19.178;2022-12-17T14:12:28;159.55;;;60.70;;
41101;SDS011;26845;50.190;19.178;2022-12-17T14:15:04;162.12;;;62.08;;
41101;SDS011;26845;50.190;19.178;2022-12-17T14:17:41;171.45;;;68.12;;
41101;SDS011;26845;50.190;19.178;2022-12-17T14:22:49;172.32;;;68.67;;
41101;SDS011;26845;50.190;19.178;2022-12-17T14:25:31;142.15;;;55.58;;
41101;SDS011;26845;50.190;19.178;2022-12-17T14:28:18;149.87;;;59.93;;
41101;SDS011;26845;50.190;19.178;2022-12-17T14:30:50;179.50;;;71.10;;
41101;SDS011;26845;50.190;19.178;2022-12-17T14:36:02;170.77;;;70.57;;
41101;SDS011;26845;50.190;19.178;2022-12-17T14:38:35;165.88;;;68.72;;
41101;SDS011;26845;50.190;19.178;2022-12-17T14:41:07;165.52;;;63.33;;
41101;SDS011;26845;50.190;19.178;2022-12-17T14:43:57;168.43;;;60.65;;
41101;SDS011;26845;50.190;19.178;2022-12-17T14:46:30;157.10;;;60.15;;
41101;SDS011;26845;50.190;19.178;2022-12-17T14:49:00;152.68;;;60.90;;
41101;SDS011;26845;50.190;19.178;2022-12-17T14:51:32;136.85;;;55.63;;
41101;SDS011;26845;50.190;19.178;2022-12-17T14:59:33;119.10;;;47.88;;
41101;SDS011;26845;50.190;19.178;2022-12-17T15:02:04;147.23;;;57.00;;
41101;SDS011;26845;50.190;19.178;2022-12-17T15:04:51;144.30;;;56.37;;
41101;SDS011;26845;50.190;19.178;2022-12-17T15:07:24;156.97;;;58.80;;
41101;SDS011;26845;50.190;19.178;2022-12-17T15:09:54;157.95;;;61.08;;
41101;SDS011;26845;50.190;19.178;2022-12-17T15:12:23;141.77;;;54.33;;
41101;SDS011;26845;50.190;19.178;2022-12-17T15:14:50;127.38;;;51.00;;
41101;SDS011;26845;50.190;19.178;2022-12-17T15:17:22;130.93;;;47.98;;
41101;SDS011;26845;50.190;19.178;2022-12-17T15:19:56;119.75;;;47.67;;
41101;SDS011;26845;50.190;19.178;2022-12-17T15:22:34;127.90;;;48.45;;
41101;SDS011;26845;50.190;19.178;2022-12-17T15:25:03;128.12;;;47.03;;
41101;SDS011;26845;50.190;19.178;2022-12-17T15:27:30;134.45;;;51.63;;
41101;SDS011;26845;50.190;19.178;2022-12-17T15:29:57;138.47;;;54.95;;
41101;SDS011;26845;50.190;19.178;2022-12-17T15:32:24;139.80;;;52.10;;
41101;SDS011;26845;50.190;19.178;2022-12-17T15:34:50;132.35;;;49.83;;
41101;SDS011;26845;50.190;19.178;2022-12-17T15:37:19;113.15;;;47.40;;
41101;SDS011;26845;50.190;19.178;2022-12-17T15:39:46;128.07;;;49.10;;
41101;SDS011;26845;50.190;19.178;2022-12-17T15:42:15;136.57;;;48.90;;
41101;SDS011;26845;50.190;19.178;2022-12-17T15:45:00;141.62;;;54.85;;
41101;SDS011;26845;50.190;19.178;2022-12-17T15:47:27;126.40;;;49.25;;
41101;SDS011;26845;50.190;19.178;2022-12-17T15:50:01;155.00;;;61.63;;
41101;SDS011;26845;50.190;19.178;2022-12-17T15:52:29;144.07;;;56.20;;
41101;SDS011;26845;50.190;19.178;2022-12-17T15:54:56;141.55;;;55.50;;
41101;SDS011;26845;50.190;19.178;2022-12-17T15:57:23;162.62;;;66.07;;
41101;SDS011;26845;50.190;19.178;2022-12-17T15:59:50;143.93;;;50.05;;
41101;SDS011;26845;50.190;19.178;2022-12-17T16:02:17;149.53;;;59.03;;
41101;SDS011;26845;50.190;19.178;2022-12-17T16:04:44;151.57;;;53.52;;
41101;SDS011;26845;50.190;19.178;2022-12-17T16:07:11;136.65;;;50.15;;
41101;SDS011;26845;50.190;19.178;2022-12-17T16:09:38;117.15;;;43.45;;
41101;SDS011;26845;50.190;19.178;2022-12-17T16:12:05;113.45;;;46.98;;
41101;SDS011;26845;50.190;19.178;2022-12-17T16:14:32;109.00;;;42.45;;
41101;SDS011;26845;50.190;19.178;2022-12-17T16:16:59;102.38;;;39.50;;
41101;SDS011;26845;50.190;19.178;2022-12-17T16:19:27;117.25;;;44.38;;
41101;SDS011;26845;50.190;19.178;2022-12-17T16:21:56;113.77;;;42.95;;
41101;SDS011;26845;50.190;19.178;2022-12-17T16:24:23;110.30;;;45.55;;
41101;SDS011;26845;50.190;19.178;2022-12-17T16:26:50;136.50;;;49.85;;
41101;SDS011;26845;50.190;19.178;2022-12-17T16:29:17;134.40;;;48.05;;
41101;SDS011;26845;50.190;19.178;2022-12-17T16:31:44;134.30;;;51.58;;
41101;SDS011;26845;50.190;19.178;2022-12-17T16:34:13;120.92;;;48.30;;
41101;SDS011;26845;50.190;19.178;2022-12-17T16:39:26;125.12;;;46.53;;
41101;SDS011;26845;50.190;19.178;2022-12-17T16:42:07;122.17;;;43.63;;
41101;SDS011;26845;50.190;19.178;2022-12-17T16:44:34;121.42;;;46.05;;
41101;SDS011;26845;50.190;19.178;2022-12-17T16:47:01;112.55;;;40.45;;
41101;SDS011;26845;50.190;19.178;2022-12-17T16:49:28;116.62;;;44.27;;
41101;SDS011;26845;50.190;19.178;2022-12-17T16:51:55;113.28;;;44.93;;
41101;SDS011;26845;50.190;19.178;2022-12-17T16:54:22;123.62;;;45.65;;
41101;SDS011;26845;50.190;19.178;2022-12-17T16:56:52;137.57;;;50.15;;
41101;SDS011;26845;50.190;19.178;2022-12-17T16:59:20;133.63;;;45.85;;
41101;SDS011;26845;50.190;19.178;2022-12-17T17:01:49;130.70;;;48.55;;
41101;SDS011;26845;50.190;19.178;2022-12-17T17:04:18;180.10;;;60.60;;
41101;SDS011;26845;50.190;19.178;2022-12-17T17:06:48;151.68;;;52.65;;
41101;SDS011;26845;50.190;19.178;2022-12-17T17:09:19;140.95;;;48.02;;
41101;SDS011;26845;50.190;19.178;2022-12-17T17:11:49;153.30;;;55.30;;
41101;SDS011;26845;50.190;19.178;2022-12-17T17:14:16;163.80;;;56.80;;
41101;SDS011;26845;50.190;19.178;2022-12-17T17:16:43;156.05;;;57.55;;
41101;SDS011;26845;50.190;19.178;2022-12-17T17:19:10;139.57;;;48.63;;
41101;SDS011;26845;50.190;19.178;2022-12-17T17:21:37;122.78;;;47.98;;
41101;SDS011;26845;50.190;19.178;2022-12-17T17:24:11;97.30;;;38.42;;
41101;SDS011;26845;50.190;19.178;2022-12-17T17:26:41;110.40;;;40.12;;
41101;SDS011;26845;50.190;19.178;2022-12-17T17:29:08;106.97;;;39.27;;
41101;SDS011;26845;50.190;19.178;2022-12-17T17:31:36;113.20;;;39.35;;
41101;SDS011;26845;50.190;19.178;2022-12-17T17:34:09;101.87;;;39.20;;
41101;SDS011;26845;50.190;19.178;2022-12-17T17:36:39;104.72;;;36.42;;
41101;SDS011;26845;50.190;19.178;2022-12-17T17:39:07;101.58;;;33.90;;
41101;SDS011;26845;50.190;19.178;2022-12-17T17:41:34;104.20;;;38.35;;
41101;SDS011;26845;50.190;19.178;2022-12-17T17:44:03;109.20;;;41.30;;
41101;SDS011;26845;50.190;19.178;2022-12-17T17:46:33;101.40;;;37.75;;
41101;SDS011;26845;50.190;19.178;2022-12-17T17:49:02;88.72;;;34.20;;
41101;SDS011;26845;50.190;19.178;2022-12-17T17:51:33;88.97;;;34.13;;